Time;durP1;ratioP1;P1;durP2;ratioP2;P2;SDS_P1;SDS_P2;PMS_P1;PMS_P2;Temp;Humidity;BMP_temperature;BMP_pressure;BME280_temperature;BME280_humidity;BME280_pressure;Samples;Min_cycle;Max_cycle;Signal;HPM_P1;HPM_P2
2022/11/01 00:02:05;;;;;;;12.57;5.70;;;;;;;;;;5066633;28;20183;-67
2022/11/01 00:04:30;;;;;;;14.63;5.82;;;;;;;;;;5078030;28;20185;-67
2022/11/01 00:06:55;;;;;;;13.07;5.43;;;;;;;;;;5081283;28;20248;-67
2022/11/01 00:09:21;;;;;;;8.68;5.13;;;;;;;;;;5080888;28;20707;-67
2022/11/01 00:11:46;;;;;;;14.02;5.40;;;;;;;;;;5086392;28;20593;-67
2022/11/01 00:14:13;;;;;;;14.95;5.05;;;;;;;;;;5078864;28;20659;-67
2022/11/01 00:16:38;;;;;;;11.45;5.10;;;;;;;;;;5071420;28;20239;-67
2022/11/01 00:19:04;;;;;;;11.40;4.85;;;;;;;;;;5081199;28;20323;-67
2022/11/01 00:21:29;;;;;;;10.23;5.00;;;;;;;;;;5077725;28;20196;-67
2022/11/01 00:23:54;;;;;;;9.25;4.40;;;;;;;;;;5078209;28;20189;-67
2022/11/01 00:26:22;;;;;;;12.75;4.50;;;;;;;;;;5072420;28;20262;-67
2022/11/01 00:28:48;;;;;;;11.65;4.82;;;;;;;;;;5080931;28;20176;-67
2022/11/01 00:31:15;;;;;;;7.70;4.43;;;;;;;;;;5084228;28;20725;-67
2022/11/01 00:33:40;;;;;;;17.48;5.32;;;;;;;;;;5072157;28;20208;-67
2022/11/01 00:36:07;;;;;;;9.70;4.60;;;;;;;;;;5082310;28;20220;-67
2022/11/01 00:38:32;;;;;;;15.57;4.50;;;;;;;;;;5085310;28;20489;-67
2022/11/01 00:40:58;;;;;;;11.43;4.60;;;;;;;;;;5079486;28;20406;-67
2022/11/01 00:43:23;;;;;;;10.35;4.53;;;;;;;;;;5077448;28;20309;-67
2022/11/01 00:45:49;;;;;;;16.42;4.93;;;;;;;;;;5081512;28;20181;-67
2022/11/01 00:48:14;;;;;;;10.45;4.57;;;;;;;;;;5073270;28;20172;-67
2022/11/01 00:50:40;;;;;;;12.73;4.72;;;;;;;;;;5077684;28;20203;-67
2022/11/01 00:53:06;;;;;;;12.65;4.88;;;;;;;;;;5079994;28;20183;-67
2022/11/01 00:55:32;;;;;;;16.23;4.97;;;;;;;;;;5080270;28;20184;-67
2022/11/01 00:57:57;;;;;;;8.93;4.20;;;;;;;;;;5070821;28;20200;-67
2022/11/01 01:00:23;;;;;;;11.70;4.45;;;;;;;;;;5077064;28;20639;-67
2022/11/01 01:02:48;;;;;;;10.18;4.40;;;;;;;;;;5076461;28;20177;-67
2022/11/01 01:05:13;;;;;;;11.45;4.55;;;;;;;;;;5072069;28;20523;-67
2022/11/01 01:07:39;;;;;;;11.15;4.80;;;;;;;;;;5072177;28;20176;-67
2022/11/01 01:10:05;;;;;;;11.02;4.40;;;;;;;;;;5068308;28;20242;-67
2022/11/01 01:12:31;;;;;;;11.30;4.43;;;;;;;;;;5076333;28;20187;-67
2022/11/01 01:14:57;;;;;;;14.55;5.18;;;;;;;;;;5070714;28;20272;-67
2022/11/01 01:17:23;;;;;;;10.40;4.30;;;;;;;;;;5088104;28;20240;-67
2022/11/01 01:19:48;;;;;;;14.10;4.60;;;;;;;;;;5069174;28;20603;-67
2022/11/01 01:22:14;;;;;;;10.57;4.65;;;;;;;;;;5083315;28;20189;-67
2022/11/01 01:24:44;;;;;;;13.63;4.95;;;;;;;;;;5073068;28;20624;-67
2022/11/01 01:27:13;;;;;;;15.82;5.20;;;;;;;;;;5087120;28;20640;-66
2022/11/01 01:29:43;;;;;;;10.88;4.90;;;;;;;;;;5071513;28;20176;-66
2022/11/01 01:32:12;;;;;;;11.02;4.97;;;;;;;;;;5076407;28;20233;-66
2022/11/01 01:34:37;;;;;;;8.93;4.45;;;;;;;;;;5081543;28;20290;-66
2022/11/01 01:37:02;;;;;;;13.30;4.53;;;;;;;;;;5077086;28;20876;-67
2022/11/01 01:39:28;;;;;;;14.38;4.70;;;;;;;;;;5088931;28;20688;-67
2022/11/01 01:41:56;;;;;;;13.98;4.82;;;;;;;;;;5079755;28;20234;-67
2022/11/01 01:44:54;;;;;;;11.15;5.20;;;;;;;;;;5077088;28;20183;-67
2022/11/01 01:47:22;;;;;;;9.77;4.53;;;;;;;;;;5046371;28;20199;-67
2022/11/01 01:49:50;;;;;;;15.95;4.82;;;;;;;;;;5087859;28;20544;-67
2022/11/01 01:52:16;;;;;;;12.32;5.38;;;;;;;;;;5086159;28;20184;-67
2022/11/01 01:54:42;;;;;;;11.52;4.10;;;;;;;;;;5073255;28;20210;-67
2022/11/01 01:57:08;;;;;;;10.25;4.82;;;;;;;;;;5080873;28;20207;-67
2022/11/01 01:59:35;;;;;;;13.65;4.70;;;;;;;;;;5076822;28;20183;-67
2022/11/01 02:02:00;;;;;;;9.57;4.43;;;;;;;;;;5072596;28;20204;-67
2022/11/01 02:04:34;;;;;;;11.82;4.35;;;;;;;;;;5067305;28;20224;-67
2022/11/01 02:07:00;;;;;;;11.27;4.50;;;;;;;;;;5074413;28;20541;-67
2022/11/01 02:09:25;;;;;;;12.60;4.65;;;;;;;;;;5078744;28;20181;-67
2022/11/01 02:11:51;;;;;;;11.57;4.18;;;;;;;;;;5072545;28;20180;-67
2022/11/01 02:14:19;;;;;;;11.45;4.57;;;;;;;;;;5067111;28;20238;-67
2022/11/01 02:16:52;;;;;;;10.50;4.50;;;;;;;;;;5075956;28;20188;-66
2022/11/01 02:19:40;;;;;;;9.75;4.65;;;;;;;;;;5067808;28;20494;-67
2022/11/01 02:22:32;;;;;;;11.23;4.57;;;;;;;;;;5073353;28;20277;-68
2022/11/01 02:25:35;;;;;;;14.73;4.35;;;;;;;;;;5073058;28;20293;-67
2022/11/01 02:28:27;;;;;;;9.35;4.22;;;;;;;;;;5073321;28;20251;-67
2022/11/01 02:31:21;;;;;;;12.43;4.25;;;;;;;;;;5073367;28;20209;-67
2022/11/01 02:33:56;;;;;;;13.70;4.20;;;;;;;;;;5074229;28;20219;-67
2022/11/01 02:36:32;;;;;;;12.32;5.38;;;;;;;;;;5073857;28;20181;-67
2022/11/01 02:39:20;;;;;;;10.82;4.30;;;;;;;;;;5069891;28;20196;-67
2022/11/01 02:41:56;;;;;;;13.00;4.95;;;;;;;;;;5072078;28;20193;-67
2022/11/01 02:44:27;;;;;;;10.02;4.15;;;;;;;;;;5075644;28;20761;-67
2022/11/01 02:47:00;;;;;;;9.23;3.95;;;;;;;;;;5072729;28;20185;-68
2022/11/01 02:49:31;;;;;;;8.85;4.18;;;;;;;;;;5071895;28;20173;-66
2022/11/01 02:51:58;;;;;;;7.30;4.43;;;;;;;;;;5072793;28;20676;-67
2022/11/01 02:54:32;;;;;;;16.98;4.43;;;;;;;;;;5070712;28;20173;-67
2022/11/01 02:57:04;;;;;;;9.18;3.85;;;;;;;;;;5070839;28;20195;-66
2022/11/01 02:59:42;;;;;;;7.32;4.55;;;;;;;;;;5073647;28;20185;-66
2022/11/01 03:02:13;;;;;;;9.27;3.97;;;;;;;;;;5074615;28;20206;-67
2022/11/01 03:04:38;;;;;;;12.82;4.40;;;;;;;;;;5073780;28;20192;-67
2022/11/01 03:07:09;;;;;;;8.88;5.00;;;;;;;;;;5070803;28;20501;-67
2022/11/01 03:09:35;;;;;;;10.45;4.07;;;;;;;;;;5075307;28;20215;-67
2022/11/01 03:12:05;;;;;;;12.95;4.68;;;;;;;;;;5071350;28;20180;-66
2022/11/01 03:14:39;;;;;;;7.35;4.13;;;;;;;;;;5071282;28;20678;-66
2022/11/01 03:17:19;;;;;;;10.45;4.63;;;;;;;;;;5073761;28;20185;-70
2022/11/01 03:19:51;;;;;;;14.15;4.60;;;;;;;;;;5073648;28;20254;-68
2022/11/01 03:22:27;;;;;;;10.98;4.53;;;;;;;;;;5072364;28;20366;-67
2022/11/01 03:25:05;;;;;;;10.85;4.90;;;;;;;;;;5080427;28;20587;-67
2022/11/01 03:27:38;;;;;;;10.90;4.55;;;;;;;;;;5071873;28;20199;-67
2022/11/01 03:30:07;;;;;;;9.27;4.75;;;;;;;;;;5078224;28;20181;-67
2022/11/01 03:32:39;;;;;;;9.38;4.70;;;;;;;;;;5080692;28;20251;-67
2022/11/01 03:35:09;;;;;;;9.43;4.47;;;;;;;;;;5073852;28;20184;-67
2022/11/01 03:37:37;;;;;;;13.90;5.30;;;;;;;;;;5080801;28;20503;-67
2022/11/01 03:40:04;;;;;;;10.23;4.97;;;;;;;;;;5068258;28;20184;-66
2022/11/01 03:42:31;;;;;;;15.90;4.72;;;;;;;;;;5072378;28;20204;-66
2022/11/01 03:45:01;;;;;;;12.40;5.22;;;;;;;;;;5073759;28;20275;-66
2022/11/01 03:47:28;;;;;;;14.40;5.22;;;;;;;;;;5070381;28;20172;-66
2022/11/01 03:50:22;;;;;;;10.55;5.00;;;;;;;;;;5070187;28;20306;-66
2022/11/01 03:52:47;;;;;;;10.15;4.82;;;;;;;;;;5080340;28;20632;-66
2022/11/01 03:55:17;;;;;;;9.75;4.68;;;;;;;;;;5077612;28;20252;-66
2022/11/01 03:57:46;;;;;;;16.10;4.53;;;;;;;;;;5077680;28;20215;-68
2022/11/01 04:00:26;;;;;;;11.32;5.40;;;;;;;;;;5076340;28;20172;-66
2022/11/01 04:02:53;;;;;;;14.75;4.88;;;;;;;;;;5075550;28;20187;-66
2022/11/01 04:05:20;;;;;;;11.07;5.63;;;;;;;;;;5081076;28;20273;-66
2022/11/01 04:07:46;;;;;;;12.40;4.55;;;;;;;;;;5071895;28;20193;-68
2022/11/01 04:10:12;;;;;;;8.32;4.55;;;;;;;;;;5089637;28;20176;-66
2022/11/01 04:12:38;;;;;;;11.63;5.00;;;;;;;;;;5085418;28;20567;-66
2022/11/01 04:20:44;;;;;;;9.45;5.03;;;;;;;;;;5069138;28;20698;-68
2022/11/01 04:23:10;;;;;;;13.30;5.22;;;;;;;;;;5072818;28;20267;-66
2022/11/01 04:25:35;;;;;;;10.27;4.70;;;;;;;;;;5077948;28;20219;-65
2022/11/01 04:28:00;;;;;;;8.05;4.88;;;;;;;;;;5080470;28;20307;-69
2022/11/01 04:30:28;;;;;;;9.65;4.47;;;;;;;;;;5079844;28;20220;-66
2022/11/01 04:32:53;;;;;;;12.30;4.35;;;;;;;;;;5070687;28;20531;-66
2022/11/01 04:35:19;;;;;;;10.85;4.85;;;;;;;;;;5068890;28;20180;-66
2022/11/01 04:37:45;;;;;;;9.43;5.60;;;;;;;;;;5069027;28;20201;-66
2022/11/01 04:40:12;;;;;;;11.23;4.70;;;;;;;;;;5069041;28;20193;-66
2022/11/01 04:42:37;;;;;;;12.40;5.63;;;;;;;;;;5070887;28;20263;-66
2022/11/01 04:45:05;;;;;;;10.38;4.53;;;;;;;;;;5075290;28;20185;-68
2022/11/01 04:47:30;;;;;;;11.40;5.00;;;;;;;;;;5085043;28;20640;-66
2022/11/01 04:49:56;;;;;;;11.88;5.00;;;;;;;;;;5076927;28;20195;-66
2022/11/01 04:52:21;;;;;;;11.15;5.20;;;;;;;;;;5081472;28;20184;-66
2022/11/01 04:54:47;;;;;;;10.10;5.35;;;;;;;;;;5079961;28;20200;-66
2022/11/01 04:57:21;;;;;;;12.57;5.07;;;;;;;;;;5082948;28;20200;-66
2022/11/01 04:59:54;;;;;;;10.10;4.53;;;;;;;;;;5087195;28;20322;-66
2022/11/01 05:02:22;;;;;;;10.43;4.80;;;;;;;;;;5081148;28;20690;-66
2022/11/01 05:04:48;;;;;;;10.23;5.38;;;;;;;;;;5072531;28;20188;-67
2022/11/01 05:07:14;;;;;;;10.40;4.70;;;;;;;;;;5070210;28;20577;-66
2022/11/01 05:09:40;;;;;;;11.98;4.43;;;;;;;;;;5071768;28;20230;-67
2022/11/01 05:12:07;;;;;;;8.98;4.80;;;;;;;;;;5086569;28;20229;-66
2022/11/01 05:14:32;;;;;;;9.82;4.50;;;;;;;;;;5083422;28;20180;-66
2022/11/01 05:16:58;;;;;;;9.45;4.60;;;;;;;;;;5070386;28;20260;-66
2022/11/01 05:19:23;;;;;;;12.70;5.35;;;;;;;;;;5073097;28;20199;-67
2022/11/01 05:21:49;;;;;;;11.27;4.43;;;;;;;;;;5068450;28;20191;-66
2022/11/01 05:24:15;;;;;;;8.98;4.53;;;;;;;;;;5081498;28;20643;-66
2022/11/01 05:26:40;;;;;;;7.20;4.00;;;;;;;;;;5073781;28;20223;-66
2022/11/01 05:29:05;;;;;;;9.35;4.28;;;;;;;;;;5069561;28;20246;-66
2022/11/01 05:31:31;;;;;;;10.43;4.07;;;;;;;;;;5072527;28;20232;-68
2022/11/01 05:33:56;;;;;;;6.75;3.70;;;;;;;;;;5080813;28;20191;-65
2022/11/01 05:36:21;;;;;;;7.22;3.33;;;;;;;;;;5068910;28;20177;-65
2022/11/01 05:38:47;;;;;;;7.22;2.97;;;;;;;;;;5081325;28;20204;-65
2022/11/01 05:41:12;;;;;;;8.43;2.85;;;;;;;;;;5070304;28;20188;-65
2022/11/01 05:43:37;;;;;;;5.57;1.67;;;;;;;;;;5081811;28;20612;-65
2022/11/01 05:46:04;;;;;;;8.52;1.40;;;;;;;;;;5079082;28;20188;-65
2022/11/01 05:48:30;;;;;;;2.92;1.08;;;;;;;;;;5081980;28;20221;-65
2022/11/01 05:50:55;;;;;;;6.18;0.95;;;;;;;;;;5074665;28;20180;-66
2022/11/01 05:53:20;;;;;;;6.72;0.95;;;;;;;;;;5075153;28;20656;-65
2022/11/01 05:55:46;;;;;;;3.03;0.77;;;;;;;;;;5076940;28;20185;-68
2022/11/01 05:58:11;;;;;;;2.35;0.68;;;;;;;;;;5081104;28;20233;-66
2022/11/01 06:00:37;;;;;;;2.40;0.60;;;;;;;;;;5069571;28;20221;-65
2022/11/01 06:03:03;;;;;;;2.25;0.63;;;;;;;;;;5072439;28;20616;-65
2022/11/01 06:05:29;;;;;;;2.03;0.47;;;;;;;;;;5066019;28;20209;-66
2022/11/01 06:07:54;;;;;;;2.35;0.68;;;;;;;;;;5069513;28;20256;-65
2022/11/01 06:10:20;;;;;;;4.63;0.73;;;;;;;;;;5068707;28;20569;-65
2022/11/01 06:12:45;;;;;;;2.50;0.60;;;;;;;;;;5071217;28;20185;-66
2022/11/01 06:15:11;;;;;;;2.78;0.80;;;;;;;;;;5068590;28;20216;-66
2022/11/01 06:17:36;;;;;;;2.95;1.05;;;;;;;;;;5071040;28;20564;-66
2022/11/01 06:20:02;;;;;;;2.78;0.60;;;;;;;;;;5072282;28;20473;-66
2022/11/01 06:22:27;;;;;;;4.15;0.63;;;;;;;;;;5068054;28;20211;-65
2022/11/01 06:24:53;;;;;;;6.45;0.60;;;;;;;;;;5076445;28;20270;-66
2022/11/01 06:27:18;;;;;;;4.97;0.50;;;;;;;;;;5079665;28;20679;-65
2022/11/01 06:29:43;;;;;;;2.92;0.52;;;;;;;;;;5079399;28;20194;-67
2022/11/01 06:32:09;;;;;;;3.72;0.60;;;;;;;;;;5068513;28;20837;-67
2022/11/01 06:34:34;;;;;;;2.42;0.80;;;;;;;;;;5064383;28;20203;-68
2022/11/01 06:37:00;;;;;;;4.82;1.20;;;;;;;;;;5068449;28;20246;-66
2022/11/01 06:39:25;;;;;;;6.22;0.70;;;;;;;;;;5068136;28;20276;-66
2022/11/01 06:41:51;;;;;;;8.45;0.90;;;;;;;;;;5067642;28;20203;-66
2022/11/01 06:44:16;;;;;;;2.53;1.02;;;;;;;;;;5069516;28;20321;-66
2022/11/01 06:46:41;;;;;;;2.70;0.70;;;;;;;;;;5067150;28;21173;-66
2022/11/01 06:49:07;;;;;;;2.05;0.60;;;;;;;;;;5082319;28;20286;-69
2022/11/01 06:51:32;;;;;;;5.18;1.00;;;;;;;;;;5072362;28;20180;-67
2022/11/01 06:53:58;;;;;;;5.65;0.77;;;;;;;;;;5071175;28;20207;-66
2022/11/01 06:56:23;;;;;;;3.65;0.60;;;;;;;;;;5080588;28;20547;-65
2022/11/01 06:58:49;;;;;;;6.38;0.90;;;;;;;;;;5068785;28;20286;-66
2022/11/01 07:01:17;;;;;;;4.63;1.05;;;;;;;;;;5069960;28;20245;-66
2022/11/01 07:03:43;;;;;;;3.13;0.75;;;;;;;;;;5069360;28;20482;-65
2022/11/01 07:06:08;;;;;;;2.65;0.70;;;;;;;;;;5070033;28;20399;-65
2022/11/01 07:08:33;;;;;;;2.50;0.80;;;;;;;;;;5071904;28;20231;-66
2022/11/01 07:10:59;;;;;;;2.95;0.73;;;;;;;;;;5067541;28;20603;-66
2022/11/01 07:13:24;;;;;;;2.63;0.60;;;;;;;;;;5067916;28;20199;-66
2022/11/01 07:15:50;;;;;;;2.55;0.60;;;;;;;;;;5070396;28;20208;-65
2022/11/01 07:18:15;;;;;;;3.30;0.50;;;;;;;;;;5072404;28;20197;-66
2022/11/01 07:20:40;;;;;;;3.65;0.63;;;;;;;;;;5077247;28;20682;-65
2022/11/01 07:23:10;;;;;;;3.97;0.80;;;;;;;;;;5074508;28;20185;-66
2022/11/01 07:25:35;;;;;;;6.63;0.85;;;;;;;;;;5068159;28;20219;-66
2022/11/01 07:28:01;;;;;;;5.55;0.73;;;;;;;;;;5068930;28;20643;-66
2022/11/01 07:30:27;;;;;;;4.53;0.63;;;;;;;;;;5068086;28;20221;-66
2022/11/01 07:33:01;;;;;;;4.57;1.00;;;;;;;;;;5067921;28;20197;-68
2022/11/01 07:35:26;;;;;;;4.35;0.75;;;;;;;;;;5069691;28;20181;-68
2022/11/01 07:37:55;;;;;;;3.22;0.82;;;;;;;;;;5070514;28;20226;-65
2022/11/01 07:40:26;;;;;;;7.97;0.90;;;;;;;;;;5071881;28;20184;-67
2022/11/01 07:42:52;;;;;;;5.70;0.82;;;;;;;;;;5072798;28;20185;-66
2022/11/01 07:45:17;;;;;;;8.05;1.20;;;;;;;;;;5072715;28;20268;-65
2022/11/01 07:47:42;;;;;;;8.07;1.50;;;;;;;;;;5070410;28;20273;-67
2022/11/01 07:50:08;;;;;;;6.00;1.10;;;;;;;;;;5068137;28;20573;-66
2022/11/01 07:52:33;;;;;;;7.13;0.80;;;;;;;;;;5072488;28;20173;-66
2022/11/01 07:54:58;;;;;;;6.85;0.90;;;;;;;;;;5071902;28;20203;-67
2022/11/01 07:57:24;;;;;;;5.65;0.98;;;;;;;;;;5072236;28;20201;-66
2022/11/01 07:59:49;;;;;;;10.50;1.67;;;;;;;;;;5072530;28;21348;-66
2022/11/01 08:02:14;;;;;;;7.93;1.70;;;;;;;;;;5069368;28;20648;-68
2022/11/01 08:04:40;;;;;;;10.30;1.30;;;;;;;;;;5077093;28;20173;-66
2022/11/01 08:07:05;;;;;;;6.55;1.20;;;;;;;;;;5078584;28;20184;-66
2022/11/01 08:09:30;;;;;;;7.43;1.08;;;;;;;;;;5070639;28;20208;-66
2022/11/01 08:11:56;;;;;;;5.13;0.85;;;;;;;;;;5076073;28;20180;-66
2022/11/01 08:14:21;;;;;;;9.10;0.98;;;;;;;;;;5081361;28;20184;-66
2022/11/01 08:16:56;;;;;;;7.63;1.38;;;;;;;;;;5073125;28;20347;-66
2022/11/01 08:19:22;;;;;;;8.20;1.45;;;;;;;;;;5077730;28;20751;-66
2022/11/01 08:21:49;;;;;;;9.20;1.13;;;;;;;;;;5069552;28;20259;-66
2022/11/01 08:24:15;;;;;;;14.68;1.52;;;;;;;;;;5074451;28;20527;-66
2022/11/01 08:26:40;;;;;;;11.05;1.10;;;;;;;;;;5069990;28;20184;-66
2022/11/01 08:29:06;;;;;;;14.10;1.27;;;;;;;;;;5073594;28;20183;-66
2022/11/01 08:31:31;;;;;;;6.78;1.20;;;;;;;;;;5071382;28;20228;-68
2022/11/01 08:33:57;;;;;;;7.82;1.30;;;;;;;;;;5071787;28;20196;-66
2022/11/01 08:36:23;;;;;;;5.35;1.33;;;;;;;;;;5068863;28;20181;-66
2022/11/01 08:38:49;;;;;;;8.20;1.23;;;;;;;;;;5072333;28;20593;-66
2022/11/01 08:41:15;;;;;;;10.68;1.75;;;;;;;;;;5068100;28;20207;-66
2022/11/01 08:43:40;;;;;;;9.32;1.58;;;;;;;;;;5073110;28;20177;-66
2022/11/01 08:46:06;;;;;;;6.80;1.02;;;;;;;;;;5069607;28;20188;-66
2022/11/01 08:48:31;;;;;;;10.02;1.42;;;;;;;;;;5072147;28;20187;-66
2022/11/01 08:50:57;;;;;;;11.77;1.38;;;;;;;;;;5070636;28;20287;-66
2022/11/01 08:53:23;;;;;;;6.28;1.30;;;;;;;;;;5071730;28;20188;-66
2022/11/01 08:55:54;;;;;;;5.93;1.00;;;;;;;;;;5068940;28;20204;-67
2022/11/01 08:58:20;;;;;;;16.48;1.95;;;;;;;;;;5073746;28;20663;-66
2022/11/01 09:00:45;;;;;;;7.65;1.13;;;;;;;;;;5071120;28;20286;-65
2022/11/01 09:03:11;;;;;;;11.82;1.70;;;;;;;;;;5067207;28;20191;-67
2022/11/01 09:05:36;;;;;;;8.63;1.80;;;;;;;;;;5072053;28;20195;-66
2022/11/01 09:08:01;;;;;;;8.30;1.40;;;;;;;;;;5069625;28;20251;-65
2022/11/01 09:10:29;;;;;;;9.82;1.85;;;;;;;;;;5072407;28;20191;-66
2022/11/01 09:12:55;;;;;;;9.88;1.50;;;;;;;;;;5068027;28;20668;-66
2022/11/01 09:15:21;;;;;;;14.77;1.35;;;;;;;;;;5075745;28;20188;-65
2022/11/01 09:17:46;;;;;;;10.95;1.38;;;;;;;;;;5069113;28;20200;-69
2022/11/01 09:20:12;;;;;;;10.35;1.23;;;;;;;;;;5074088;28;20187;-66
2022/11/01 09:22:37;;;;;;;12.10;1.67;;;;;;;;;;5068240;28;20283;-66
2022/11/01 09:25:04;;;;;;;11.48;1.90;;;;;;;;;;5071420;28;20501;-65
2022/11/01 09:27:29;;;;;;;11.93;1.50;;;;;;;;;;5066346;28;20283;-67
2022/11/01 09:29:55;;;;;;;12.50;1.73;;;;;;;;;;5073001;28;20557;-66
2022/11/01 09:32:20;;;;;;;10.90;1.30;;;;;;;;;;5071717;28;20215;-68
2022/11/01 09:34:47;;;;;;;11.63;1.58;;;;;;;;;;5076116;28;20177;-65
2022/11/01 09:37:13;;;;;;;11.73;1.65;;;;;;;;;;5080331;28;20187;-68
2022/11/01 09:39:39;;;;;;;14.57;1.90;;;;;;;;;;5082445;28;20625;-65
2022/11/01 09:42:10;;;;;;;10.55;1.60;;;;;;;;;;5075935;28;20215;-65
2022/11/01 09:44:42;;;;;;;9.52;1.63;;;;;;;;;;5078067;28;20264;-66
2022/11/01 09:47:18;;;;;;;9.90;1.60;;;;;;;;;;5070069;28;20188;-66
2022/11/01 09:49:46;;;;;;;9.77;1.65;;;;;;;;;;5082722;28;20279;-65
2022/11/01 09:52:22;;;;;;;12.25;2.33;;;;;;;;;;5087562;28;20237;-65
2022/11/01 09:54:48;;;;;;;13.90;1.98;;;;;;;;;;5083850;28;20195;-65
2022/11/01 09:57:25;;;;;;;13.90;1.98;;;;;;;;;;5069956;28;20302;-65
2022/11/01 10:00:08;;;;;;;13.43;2.42;;;;;;;;;;5071287;28;20241;-65
2022/11/01 10:02:58;;;;;;;10.57;2.00;;;;;;;;;;5071293;28;20570;-66
2022/11/01 10:05:33;;;;;;;10.50;3.65;;;;;;;;;;5081052;28;20279;-66
2022/11/01 10:08:19;;;;;;;9.50;2.17;;;;;;;;;;5067375;28;20543;-65
2022/11/01 10:11:11;;;;;;;10.60;1.92;;;;;;;;;;5068525;28;20200;-66
2022/11/01 10:14:04;;;;;;;10.35;2.00;;;;;;;;;;5069818;28;20522;-65
2022/11/01 10:16:40;;;;;;;12.82;2.05;;;;;;;;;;5068955;28;20481;-67
2022/11/01 10:19:13;;;;;;;19.45;2.67;;;;;;;;;;5071610;28;20458;-66
2022/11/01 10:21:49;;;;;;;16.10;2.30;;;;;;;;;;5066770;28;20242;-66
2022/11/01 10:24:26;;;;;;;13.45;2.20;;;;;;;;;;5068155;28;20180;-66
2022/11/01 10:27:00;;;;;;;10.35;1.90;;;;;;;;;;5065855;28;20180;-65
2022/11/01 10:29:36;;;;;;;12.00;1.70;;;;;;;;;;5067921;28;20176;-68
2022/11/01 10:32:03;;;;;;;16.15;1.92;;;;;;;;;;5069185;28;20647;-65
2022/11/01 10:34:32;;;;;;;15.23;2.42;;;;;;;;;;5067112;28;20242;-67
2022/11/01 10:37:19;;;;;;;15.75;1.90;;;;;;;;;;5070616;28;20248;-69
2022/11/01 10:40:11;;;;;;;11.52;2.00;;;;;;;;;;5068710;28;20310;-70
2022/11/01 10:42:36;;;;;;;18.05;2.10;;;;;;;;;;5068171;28;20253;-68
2022/11/01 10:45:07;;;;;;;10.52;2.10;;;;;;;;;;5072131;28;20699;-69
2022/11/01 10:47:33;;;;;;;12.43;1.80;;;;;;;;;;5074896;28;20266;-67
2022/11/01 10:50:10;;;;;;;9.38;2.00;;;;;;;;;;5081009;28;20185;-65
2022/11/01 10:52:48;;;;;;;9.70;1.83;;;;;;;;;;5076350;28;20248;-67
2022/11/01 10:55:20;;;;;;;11.25;1.63;;;;;;;;;;5077799;28;20184;-67
2022/11/01 10:57:52;;;;;;;12.70;1.80;;;;;;;;;;5087732;28;20264;-68
2022/11/01 11:00:19;;;;;;;13.50;2.55;;;;;;;;;;5080861;28;20519;-66
2022/11/01 11:03:19;;;;;;;7.47;1.70;;;;;;;;;;5087509;28;20233;-66
2022/11/01 11:05:46;;;;;;;9.30;1.60;;;;;;;;;;5086769;28;20267;-67
2022/11/01 11:08:15;;;;;;;19.92;1.85;;;;;;;;;;5079647;28;20251;-66
2022/11/01 11:10:41;;;;;;;12.32;2.17;;;;;;;;;;5087931;28;20237;-66
2022/11/01 11:13:08;;;;;;;12.70;1.65;;;;;;;;;;5079176;28;20266;-69
2022/11/01 11:16:00;;;;;;;14.65;2.08;;;;;;;;;;5077842;28;20247;-66
2022/11/01 11:18:32;;;;;;;10.63;1.52;;;;;;;;;;5073303;28;20623;-66
2022/11/01 11:21:01;;;;;;;15.65;2.42;;;;;;;;;;5087343;28;20200;-66
2022/11/01 11:23:29;;;;;;;16.27;2.15;;;;;;;;;;5084167;28;20184;-65
2022/11/01 11:26:06;;;;;;;12.55;2.70;;;;;;;;;;5080386;28;20181;-66
2022/11/01 11:28:34;;;;;;;11.13;2.00;;;;;;;;;;5091259;28;20248;-65
2022/11/01 11:31:19;;;;;;;11.95;2.03;;;;;;;;;;5082983;28;20281;-66
2022/11/01 11:34:04;;;;;;;13.65;1.83;;;;;;;;;;5087448;28;20192;-65
2022/11/01 11:36:37;;;;;;;10.35;1.60;;;;;;;;;;5090235;28;20647;-66
2022/11/01 11:39:03;;;;;;;19.60;2.20;;;;;;;;;;5071337;28;20695;-65
2022/11/01 11:41:35;;;;;;;15.50;1.92;;;;;;;;;;5087582;28;20188;-65
2022/11/01 11:44:01;;;;;;;13.52;1.95;;;;;;;;;;5091185;28;20267;-67
2022/11/01 11:46:26;;;;;;;13.55;2.70;;;;;;;;;;5090576;28;20187;-66
2022/11/01 11:48:52;;;;;;;12.05;2.08;;;;;;;;;;5090636;28;20176;-66
2022/11/01 11:51:19;;;;;;;11.07;2.38;;;;;;;;;;5080681;28;20563;-65
2022/11/01 11:54:18;;;;;;;11.05;2.33;;;;;;;;;;5082896;28;20261;-65
2022/11/01 11:56:45;;;;;;;13.00;2.20;;;;;;;;;;5076362;28;20184;-69
2022/11/01 11:59:30;;;;;;;8.77;1.85;;;;;;;;;;5075938;28;20207;-66
2022/11/01 12:01:58;;;;;;;13.13;1.75;;;;;;;;;;5075343;28;20211;-66
2022/11/01 12:04:46;;;;;;;12.05;2.22;;;;;;;;;;5079183;28;20335;-66
2022/11/01 12:07:38;;;;;;;10.80;2.00;;;;;;;;;;5086107;28;20199;-66
2022/11/01 12:10:06;;;;;;;14.50;1.95;;;;;;;;;;5087352;28;20176;-66
2022/11/01 12:12:34;;;;;;;14.57;2.80;;;;;;;;;;5073231;28;20194;-66
2022/11/01 12:15:01;;;;;;;10.63;1.60;;;;;;;;;;5068913;28;20263;-66
2022/11/01 12:17:32;;;;;;;9.50;1.92;;;;;;;;;;5076120;28;20225;-67
2022/11/01 12:20:19;;;;;;;12.38;2.03;;;;;;;;;;5080947;28;20233;-66
2022/11/01 12:23:25;;;;;;;9.95;1.92;;;;;;;;;;5072290;28;20647;-67
2022/11/01 12:25:52;;;;;;;10.23;1.75;;;;;;;;;;5072598;28;20191;-69
2022/11/01 12:28:25;;;;;;;11.73;2.05;;;;;;;;;;5074038;28;20694;-66
2022/11/01 12:30:56;;;;;;;14.43;2.42;;;;;;;;;;5071316;28;20344;-66
2022/11/01 12:33:32;;;;;;;15.80;2.70;;;;;;;;;;5071732;28;20213;-66
2022/11/01 12:35:58;;;;;;;15.43;2.13;;;;;;;;;;5072702;28;20642;-66
2022/11/01 12:38:51;;;;;;;8.82;1.65;;;;;;;;;;5069233;28;20694;-69
2022/11/01 12:41:42;;;;;;;16.60;2.38;;;;;;;;;;5071812;28;20192;-66
2022/11/01 12:44:17;;;;;;;11.65;1.73;;;;;;;;;;5079997;28;20172;-66
2022/11/01 12:46:56;;;;;;;12.07;1.80;;;;;;;;;;5078837;28;20192;-66
2022/11/01 12:49:50;;;;;;;12.10;1.98;;;;;;;;;;5068583;28;20221;-66
2022/11/01 12:52:31;;;;;;;9.88;1.50;;;;;;;;;;5065822;28;20648;-66
2022/11/01 12:55:27;;;;;;;6.40;1.52;;;;;;;;;;5075423;28;20236;-66
2022/11/01 12:57:53;;;;;;;10.48;1.67;;;;;;;;;;5067919;28;20594;-67
2022/11/01 13:00:20;;;;;;;11.35;2.08;;;;;;;;;;5072813;28;20181;-67
2022/11/01 13:03:03;;;;;;;12.85;2.22;;;;;;;;;;5078439;28;20228;-67
2022/11/01 13:05:47;;;;;;;10.68;2.28;;;;;;;;;;5083157;28;20312;-66
2022/11/01 13:08:52;;;;;;;5.95;1.90;;;;;;;;;;5075044;28;20252;-66
2022/11/01 13:11:28;;;;;;;10.57;1.80;;;;;;;;;;5083746;28;20188;-66
2022/11/01 13:14:26;;;;;;;17.65;2.80;;;;;;;;;;5079736;28;20563;-66
2022/11/01 13:17:06;;;;;;;11.55;1.80;;;;;;;;;;5079827;28;20261;-71
2022/11/01 13:19:49;;;;;;;13.85;1.73;;;;;;;;;;5078518;28;20219;-66
2022/11/01 13:22:21;;;;;;;10.85;1.83;;;;;;;;;;5073093;28;20666;-69
2022/11/01 13:25:00;;;;;;;11.75;2.55;;;;;;;;;;5073512;28;20272;-65
2022/11/01 13:27:47;;;;;;;13.25;1.58;;;;;;;;;;5076879;28;20180;-66
2022/11/01 13:30:18;;;;;;;12.45;1.77;;;;;;;;;;5077735;28;20215;-67
2022/11/01 13:33:03;;;;;;;10.15;1.52;;;;;;;;;;5070116;28;20603;-65
2022/11/01 13:35:57;;;;;;;7.97;1.45;;;;;;;;;;5075196;28;20176;-66
2022/11/01 13:38:36;;;;;;;9.13;1.60;;;;;;;;;;5070859;28;20228;-65
2022/11/01 13:41:39;;;;;;;9.68;2.10;;;;;;;;;;5069454;28;20237;-65
2022/11/01 13:44:13;;;;;;;9.75;1.63;;;;;;;;;;5061709;28;20188;-66
2022/11/01 13:47:01;;;;;;;10.90;1.55;;;;;;;;;;5075986;28;20172;-65
2022/11/01 13:49:55;;;;;;;7.68;1.30;;;;;;;;;;5080477;28;20264;-65
2022/11/01 13:52:25;;;;;;;9.43;1.33;;;;;;;;;;5082804;28;20591;-65
2022/11/01 13:55:02;;;;;;;9.68;1.90;;;;;;;;;;5081438;28;20192;-65
2022/11/01 13:57:27;;;;;;;10.48;1.92;;;;;;;;;;5079183;28;20182;-65
2022/11/01 13:59:59;;;;;;;7.88;1.77;;;;;;;;;;5076204;28;20640;-66
2022/11/01 14:02:24;;;;;;;10.65;1.30;;;;;;;;;;5069204;28;20207;-65
2022/11/01 14:04:58;;;;;;;5.53;1.40;;;;;;;;;;5069385;28;20184;-66
2022/11/01 14:07:25;;;;;;;8.10;1.65;;;;;;;;;;5070033;28;20521;-66
2022/11/01 14:09:52;;;;;;;13.20;1.95;;;;;;;;;;5071631;28;20181;-65
2022/11/01 14:12:37;;;;;;;9.95;1.40;;;;;;;;;;5070107;28;20180;-67
2022/11/01 14:15:18;;;;;;;7.65;1.20;;;;;;;;;;5069480;28;20180;-66
2022/11/01 14:17:56;;;;;;;8.27;1.67;;;;;;;;;;5073683;28;20211;-70
2022/11/01 14:20:24;;;;;;;7.63;1.27;;;;;;;;;;5069032;28;20418;-70
2022/11/01 14:22:50;;;;;;;6.32;1.30;;;;;;;;;;5071895;28;20246;-66
2022/11/01 14:25:16;;;;;;;8.55;1.55;;;;;;;;;;5071386;28;20249;-66
2022/11/01 14:27:44;;;;;;;7.95;1.40;;;;;;;;;;5075461;28;20272;-65
2022/11/01 14:30:19;;;;;;;6.20;1.60;;;;;;;;;;5074191;28;20191;-67
2022/11/01 14:32:53;;;;;;;7.80;1.10;;;;;;;;;;5076940;28;20803;-67
2022/11/01 14:35:48;;;;;;;7.72;1.17;;;;;;;;;;5078575;28;20183;-66
2022/11/01 14:38:19;;;;;;;8.15;1.60;;;;;;;;;;5075159;28;20217;-66
2022/11/01 14:40:54;;;;;;;9.60;1.42;;;;;;;;;;5080683;28;20177;-66
2022/11/01 14:43:23;;;;;;;10.88;1.50;;;;;;;;;;5078723;28;20241;-67
2022/11/01 14:46:25;;;;;;;8.27;1.20;;;;;;;;;;5077530;28;20187;-70
2022/11/01 14:49:41;;;;;;;11.25;2.05;;;;;;;;;;5078795;28;20188;-66
2022/11/01 14:52:17;;;;;;;7.88;1.98;;;;;;;;;;5069151;28;20354;-67
2022/11/01 14:54:45;;;;;;;9.73;1.17;;;;;;;;;;5074259;28;20569;-66
2022/11/01 14:57:40;;;;;;;7.88;1.58;;;;;;;;;;5074328;28;20194;-67
2022/11/01 15:00:29;;;;;;;8.40;1.77;;;;;;;;;;5059244;28;20192;-66
2022/11/01 15:02:59;;;;;;;8.00;1.50;;;;;;;;;;5082995;28;20545;-67
2022/11/01 15:05:26;;;;;;;7.28;1.85;;;;;;;;;;5079706;28;20176;-68